Time;durP1;ratioP1;P1;durP2;ratioP2;P2;SDS_P1;SDS_P2;PMS_P1;PMS_P2;Temp;Humidity;BMP_temperature;BMP_pressure;BME280_temperature;BME280_humidity;BME280_pressure;Samples;Min_cycle;Max_cycle;Signal;HPM_P1;HPM_P2
2023/06/02 00:00:39;;;;;;;8.02;1.88;;;15.00;83.60;;;;;;10483625;28;20730;-65
2023/06/02 00:05:40;;;;;;;6.75;2.75;;;15.00;83.60;;;;;;10482791;28;20027;-66
2023/06/02 00:10:40;;;;;;;5.15;1.85;;;15.00;83.60;;;;;;10468700;28;20500;-65
2023/06/02 00:15:41;;;;;;;3.80;1.83;;;15.00;83.60;;;;;;10479292;28;20099;-65
2023/06/02 00:20:44;;;;;;;6.60;2.05;;;15.00;83.60;;;;;;10482409;28;20059;-65
2023/06/02 00:25:44;;;;;;;4.97;1.83;;;14.90;83.50;;;;;;10469467;28;20076;-65
2023/06/02 00:30:45;;;;;;;3.63;1.80;;;14.90;83.50;;;;;;10476089;28;20044;-65
2023/06/02 00:35:46;;;;;;;5.80;2.10;;;14.90;83.40;;;;;;10485249;28;20025;-65
2023/06/02 00:40:47;;;;;;;5.03;1.92;;;14.90;83.40;;;;;;10483521;28;20374;-65
2023/06/02 00:45:47;;;;;;;3.22;1.70;;;14.90;83.40;;;;;;10486947;28;20028;-65
2023/06/02 00:50:48;;;;;;;7.00;2.00;;;14.90;83.40;;;;;;10483574;28;20012;-65
2023/06/02 00:55:51;;;;;;;6.55;2.20;;;14.90;83.30;;;;;;10476290;28;20377;-66
2023/06/02 01:00:52;;;;;;;4.13;2.20;;;14.90;83.30;;;;;;10483064;28;20017;-65
2023/06/02 01:05:55;;;;;;;4.82;2.10;;;14.80;83.20;;;;;;10480534;28;20506;-65
2023/06/02 01:10:57;;;;;;;5.88;2.15;;;14.90;83.20;;;;;;10479725;28;20979;-65
2023/06/02 01:15:58;;;;;;;4.20;1.75;;;14.80;83.10;;;;;;10492398;28;20029;-65
2023/06/02 01:21:00;;;;;;;6.13;2.00;;;14.80;83.10;;;;;;10489824;28;20020;-65
2023/06/02 01:26:01;;;;;;;4.22;2.00;;;14.80;83.10;;;;;;10491269;28;20115;-65
2023/06/02 01:31:16;;;;;;;5.18;2.03;;;14.80;83.10;;;;;;10489391;28;20858;-65
2023/06/02 01:36:20;;;;;;;5.50;2.03;;;14.80;83.00;;;;;;10487144;28;20467;-65
2023/06/02 01:41:21;;;;;;;3.42;1.83;;;14.80;83.00;;;;;;10494003;28;20055;-66
2023/06/02 01:46:24;;;;;;;7.38;2.42;;;14.80;83.00;;;;;;10479549;28;20029;-65
2023/06/02 01:51:25;;;;;;;2.67;1.40;;;14.80;83.00;;;;;;10484181;28;20035;-65
2023/06/02 01:56:25;;;;;;;5.10;1.92;;;14.80;83.00;;;;;;10482952;28;20024;-65
2023/06/02 02:01:27;;;;;;;4.97;1.35;;;14.70;83.00;;;;;;10483479;28;20021;-65
2023/06/02 02:06:30;;;;;;;3.80;1.55;;;14.80;83.00;;;;;;10487805;28;20400;-66
2023/06/02 02:11:31;;;;;;;4.43;1.77;;;14.80;83.00;;;;;;10480290;28;20259;-65
2023/06/02 02:16:31;;;;;;;6.45;1.85;;;14.70;82.90;;;;;;10490828;28;20115;-65
2023/06/02 02:21:33;;;;;;;6.28;1.77;;;14.70;82.90;;;;;;10491647;28;20035;-65
2023/06/02 02:26:33;;;;;;;4.05;1.60;;;14.70;82.90;;;;;;10490420;28;20094;-65
2023/06/02 02:31:34;;;;;;;5.90;1.80;;;14.70;82.80;;;;;;10487729;28;20490;-65
2023/06/02 02:36:34;;;;;;;4.65;1.50;;;14.70;82.80;;;;;;10483402;28;20035;-65
2023/06/02 02:41:35;;;;;;;6.47;1.73;;;14.70;82.80;;;;;;10481421;28;20085;-65
2023/06/02 02:46:36;;;;;;;7.13;1.98;;;14.70;82.80;;;;;;10475464;28;20025;-65
2023/06/02 02:51:37;;;;;;;4.90;1.80;;;14.60;82.80;;;;;;10479220;28;20025;-65
2023/06/02 02:56:39;;;;;;;6.18;1.55;;;14.60;82.80;;;;;;10467506;28;20027;-65
2023/06/02 03:01:43;;;;;;;4.38;1.50;;;14.60;82.70;;;;;;10480622;28;20495;-65
2023/06/02 03:06:45;;;;;;;8.32;1.80;;;14.60;82.70;;;;;;10481976;28;20020;-66
2023/06/02 03:11:46;;;;;;;6.57;1.67;;;14.60;82.70;;;;;;10476337;28;20511;-65
2023/06/02 03:16:46;;;;;;;6.68;1.67;;;14.60;82.70;;;;;;10479675;28;20029;-65
2023/06/02 03:21:47;;;;;;;5.50;1.30;;;14.60;82.70;;;;;;10488877;28;20207;-65
2023/06/02 03:26:51;;;;;;;4.38;1.38;;;14.70;82.70;;;;;;10477884;28;20030;-65
2023/06/02 03:31:54;;;;;;;4.68;1.58;;;14.60;82.70;;;;;;10470465;28;20008;-65
2023/06/02 03:36:56;;;;;;;4.38;1.30;;;14.70;82.70;;;;;;10470237;28;20031;-64
2023/06/02 03:41:57;;;;;;;4.07;1.50;;;14.60;82.70;;;;;;10487039;28;20024;-65
2023/06/02 03:46:57;;;;;;;3.50;1.30;;;14.50;82.60;;;;;;10487340;28;20081;-65
2023/06/02 03:51:58;;;;;;;4.97;1.42;;;14.60;82.70;;;;;;10477910;28;20082;-65
2023/06/02 03:56:59;;;;;;;3.58;1.48;;;14.50;82.60;;;;;;10473270;28;20330;-65
2023/06/02 04:02:07;;;;;;;5.00;1.45;;;14.50;82.60;;;;;;10462906;28;20515;-66
2023/06/02 04:07:12;;;;;;;6.43;1.88;;;14.50;82.60;;;;;;10493042;28;20555;-65
2023/06/02 04:12:13;;;;;;;7.55;1.83;;;14.60;82.70;;;;;;10489551;28;20035;-65
2023/06/02 04:17:13;;;;;;;8.07;1.58;;;14.50;82.60;;;;;;10492587;28;20037;-65
2023/06/02 04:22:14;;;;;;;5.18;1.70;;;14.50;82.60;;;;;;10480122;28;20095;-66
2023/06/02 04:27:16;;;;;;;5.75;1.60;;;14.50;82.60;;;;;;10482617;28;20044;-66
2023/06/02 04:32:17;;;;;;;4.22;1.50;;;14.60;82.70;;;;;;10486264;28;20225;-66
2023/06/02 04:37:18;;;;;;;6.03;1.70;;;14.50;82.60;;;;;;10490286;28;20035;-67
2023/06/02 04:42:19;;;;;;;6.38;1.77;;;14.50;82.60;;;;;;10480448;28;20029;-66
2023/06/02 04:47:20;;;;;;;7.03;1.88;;;14.50;82.70;;;;;;10473709;28;20020;-66
2023/06/02 04:52:21;;;;;;;7.15;1.50;;;14.50;82.70;;;;;;10479361;28;20522;-66
2023/06/02 04:57:22;;;;;;;4.47;1.48;;;14.50;82.70;;;;;;10481983;28;20020;-66
2023/06/02 05:02:22;;;;;;;3.80;1.45;;;14.50;82.70;;;;;;10477923;28;20549;-65
2023/06/02 05:07:23;;;;;;;5.40;1.10;;;14.60;82.80;;;;;;10485735;28;20127;-65
2023/06/02 05:12:25;;;;;;;9.02;1.40;;;14.50;82.70;;;;;;10489864;28;20373;-65
2023/06/02 05:17:29;;;;;;;7.78;1.60;;;14.50;82.70;;;;;;10476214;28;20019;-65
2023/06/02 05:22:30;;;;;;;6.00;1.65;;;14.50;82.70;;;;;;10481324;28;20052;-66
2023/06/02 05:27:30;;;;;;;6.68;1.50;;;14.50;82.70;;;;;;10493026;28;20031;-66
2023/06/02 05:32:31;;;;;;;5.20;1.45;;;14.60;82.70;;;;;;10481143;28;20016;-66
2023/06/02 05:37:32;;;;;;;4.72;1.20;;;14.60;82.80;;;;;;10477720;28;20039;-66
2023/06/02 05:42:32;;;;;;;5.65;1.60;;;14.50;82.70;;;;;;10481017;28;20017;-66
2023/06/02 05:47:33;;;;;;;4.20;1.80;;;14.50;82.70;;;;;;10483199;28;20017;-66
2023/06/02 05:52:33;;;;;;;6.38;1.70;;;14.50;82.70;;;;;;10483743;28;20020;-66
2023/06/02 05:57:36;;;;;;;5.50;1.30;;;14.50;82.80;;;;;;10476607;28;20305;-65
2023/06/02 06:02:42;;;;;;;4.95;1.50;;;14.50;82.80;;;;;;10470782;28;20025;-67
2023/06/02 06:07:43;;;;;;;4.50;1.55;;;14.50;82.80;;;;;;10482099;28;20040;-66
2023/06/02 06:12:44;;;;;;;6.25;1.60;;;14.50;82.70;;;;;;10485303;28;20024;-66
2023/06/02 06:17:49;;;;;;;7.32;1.55;;;14.60;82.80;;;;;;10476266;28;20021;-66
2023/06/02 06:22:50;;;;;;;6.07;1.67;;;14.60;82.80;;;;;;10482728;28;20096;-66
2023/06/02 06:27:50;;;;;;;5.40;1.40;;;14.50;82.70;;;;;;10486653;28;20033;-66
2023/06/02 06:32:51;;;;;;;5.03;1.50;;;14.60;82.70;;;;;;10486386;28;20072;-66
2023/06/02 06:37:52;;;;;;;7.30;1.60;;;14.60;82.70;;;;;;10479288;28;20024;-65
2023/06/02 06:42:52;;;;;;;5.47;1.25;;;14.70;82.70;;;;;;10478711;28;20119;-66
2023/06/02 06:47:53;;;;;;;7.43;1.75;;;14.70;82.70;;;;;;10478711;28;20492;-65
2023/06/02 06:52:53;;;;;;;3.30;1.40;;;14.70;82.70;;;;;;10483928;28;20086;-66
2023/06/02 06:57:54;;;;;;;6.78;1.60;;;14.70;82.60;;;;;;10476447;28;20025;-66
2023/06/02 07:02:55;;;;;;;4.47;1.65;;;14.80;82.70;;;;;;10472614;28;20016;-66
2023/06/02 07:07:56;;;;;;;6.57;1.83;;;14.70;82.60;;;;;;10477986;28;20038;-66
2023/06/02 07:12:57;;;;;;;4.70;1.48;;;14.80;82.70;;;;;;10482488;28;20027;-66
2023/06/02 07:17:58;;;;;;;3.92;1.42;;;14.90;82.70;;;;;;10480292;28;20492;-66
2023/06/02 07:22:58;;;;;;;5.53;1.50;;;14.80;82.60;;;;;;10479025;28;20519;-66
2023/06/02 07:27:59;;;;;;;7.00;1.67;;;14.90;82.70;;;;;;10489422;28;20093;-66
2023/06/02 07:32:59;;;;;;;4.40;1.55;;;14.90;82.70;;;;;;10480924;28;20689;-66
2023/06/02 07:38:00;;;;;;;4.10;1.52;;;14.90;82.70;;;;;;10490117;28;20024;-66
2023/06/02 07:43:01;;;;;;;4.10;1.60;;;14.80;82.60;;;;;;10478900;28;20071;-66
2023/06/02 07:48:01;;;;;;;5.78;1.63;;;14.90;82.70;;;;;;10484662;28;20324;-66
2023/06/02 07:53:02;;;;;;;6.43;1.30;;;15.00;82.70;;;;;;10489101;28;20388;-66
2023/06/02 07:58:03;;;;;;;3.85;1.38;;;15.00;82.70;;;;;;10480948;28;20078;-66
2023/06/02 08:03:04;;;;;;;3.85;1.30;;;14.90;82.60;;;;;;10490267;28;20078;-66
2023/06/02 08:08:05;;;;;;;7.50;1.58;;;14.90;82.70;;;;;;10483773;28;20029;-66
2023/06/02 08:13:05;;;;;;;4.28;1.48;;;15.00;82.70;;;;;;10482534;28;20107;-66
2023/06/02 08:18:13;;;;;;;5.07;1.50;;;15.00;82.80;;;;;;10472201;28;20712;-66
2023/06/02 08:23:13;;;;;;;7.80;2.00;;;15.10;82.90;;;;;;10478903;28;20386;-66
2023/06/02 08:28:14;;;;;;;3.90;1.38;;;15.10;82.80;;;;;;10480066;28;20021;-66
2023/06/02 08:33:15;;;;;;;5.68;1.50;;;15.10;82.80;;;;;;10486717;28;20032;-66
2023/06/02 08:38:17;;;;;;;3.80;1.48;;;15.20;82.90;;;;;;10483344;28;20071;-66
2023/06/02 08:43:18;;;;;;;3.35;1.60;;;15.10;82.90;;;;;;10482898;28;20496;-66
2023/06/02 08:48:18;;;;;;;3.30;1.33;;;15.10;82.80;;;;;;10477832;28;20033;-66
2023/06/02 08:53:23;;;;;;;4.20;1.80;;;15.20;82.80;;;;;;10496333;28;20028;-66
2023/06/02 08:58:28;;;;;;;6.32;1.55;;;15.20;82.80;;;;;;10478720;28;20081;-66
2023/06/02 09:03:29;;;;;;;3.85;1.40;;;15.40;82.90;;;;;;10488641;28;20015;-66
2023/06/02 09:08:29;;;;;;;5.18;1.73;;;15.30;82.90;;;;;;10486300;28;20024;-66
2023/06/02 09:13:33;;;;;;;3.83;1.60;;;15.30;82.80;;;;;;10470617;28;20021;-66
2023/06/02 09:18:33;;;;;;;7.10;2.05;;;15.40;82.80;;;;;;10482096;28;20012;-65
2023/06/02 09:23:43;;;;;;;9.32;1.88;;;15.50;82.80;;;;;;10482780;28;20017;-66
2023/06/02 09:28:44;;;;;;;3.70;1.35;;;15.50;83.00;;;;;;10474028;28;20119;-66
2023/06/02 09:33:58;;;;;;;5.07;1.35;;;15.60;82.80;;;;;;10481310;28;20043;-66
2023/06/02 09:38:58;;;;;;;3.65;1.65;;;15.60;83.00;;;;;;10470763;28;20024;-66
2023/06/02 09:43:59;;;;;;;5.00;2.00;;;15.60;82.80;;;;;;10477516;28;20021;-66
2023/06/02 09:49:07;;;;;;;6.77;2.13;;;15.70;82.90;;;;;;10482856;28;20016;-66
2023/06/02 09:54:08;;;;;;;2.63;1.75;;;15.70;82.90;;;;;;10482561;28;20115;-66
2023/06/02 09:59:09;;;;;;;5.38;1.80;;;15.70;82.90;;;;;;10485133;28;20408;-66
2023/06/02 10:04:11;;;;;;;4.18;1.63;;;15.80;82.90;;;;;;10476510;28;20033;-66
2023/06/02 10:09:38;;;;;;;5.22;1.77;;;15.90;82.90;;;;;;10474735;28;20036;-66
2023/06/02 10:15:16;;;;;;;5.78;2.15;;;15.90;82.90;;;;;;10470338;28;20016;-66
2023/06/02 10:20:22;;;;;;;6.88;2.35;;;16.00;82.80;;;;;;10471770;28;20024;-66
2023/06/02 10:25:56;;;;;;;7.75;2.13;;;16.00;82.60;;;;;;10480198;28;20106;-66
2023/06/02 10:31:11;;;;;;;7.80;1.90;;;16.10;82.80;;;;;;10468386;28;20062;-66
2023/06/02 10:36:13;;;;;;;7.32;2.80;;;16.20;82.70;;;;;;10473158;28;20059;-66
2023/06/02 10:41:16;;;;;;;7.57;2.00;;;16.30;82.60;;;;;;10473766;28;20047;-66
2023/06/02 10:46:21;;;;;;;5.85;1.83;;;16.30;82.60;;;;;;10477671;28;20313;-66
2023/06/02 10:51:22;;;;;;;3.05;1.50;;;16.30;82.70;;;;;;10479101;28;20056;-66
2023/06/02 10:56:35;;;;;;;6.03;2.20;;;16.40;82.90;;;;;;10481182;28;20020;-66
2023/06/02 11:01:50;;;;;;;6.88;1.75;;;16.30;83.00;;;;;;10476014;28;20492;-66
2023/06/02 11:07:21;;;;;;;5.03;1.77;;;16.40;83.10;;;;;;10479505;28;20036;-66
2023/06/02 11:12:50;;;;;;;5.60;1.80;;;16.40;83.10;;;;;;10470211;28;20028;-66
2023/06/02 11:17:50;;;;;;;4.55;1.70;;;16.40;83.10;;;;;;10477136;28;20035;-66
2023/06/02 11:23:05;;;;;;;6.95;2.22;;;16.40;83.00;;;;;;10476773;28;20029;-66
2023/06/02 11:28:20;;;;;;;8.82;2.60;;;16.50;83.10;;;;;;10474705;28;20064;-66
2023/06/02 11:33:21;;;;;;;3.63;1.60;;;16.50;83.00;;;;;;10467161;28;20036;-66
2023/06/02 11:38:21;;;;;;;5.50;1.80;;;16.60;82.90;;;;;;10476429;28;20025;-66
2023/06/02 11:43:22;;;;;;;4.50;1.70;;;16.60;82.90;;;;;;10474668;28;20033;-66
2023/06/02 11:48:25;;;;;;;5.18;1.63;;;16.70;82.70;;;;;;10480147;28;20028;-66
2023/06/02 11:53:26;;;;;;;4.40;1.80;;;16.80;82.50;;;;;;10481917;28;20239;-66
2023/06/02 11:58:28;;;;;;;4.78;2.00;;;16.90;82.50;;;;;;10474767;28;20032;-66
2023/06/02 12:03:28;;;;;;;4.07;1.60;;;16.90;82.50;;;;;;10474398;28;20139;-66
2023/06/02 12:08:29;;;;;;;2.80;1.50;;;17.00;82.50;;;;;;10478082;28;20062;-66
2023/06/02 12:13:31;;;;;;;4.60;1.40;;;17.10;82.40;;;;;;10464864;28;20024;-66
2023/06/02 12:18:32;;;;;;;3.05;1.40;;;17.10;82.20;;;;;;10480473;28;20025;-66
2023/06/02 12:23:46;;;;;;;3.97;1.45;;;17.20;82.20;;;;;;10473078;28;20027;-67
2023/06/02 12:28:46;;;;;;;3.72;1.58;;;17.30;82.20;;;;;;10474630;28;20031;-66
2023/06/02 12:33:47;;;;;;;3.17;1.50;;;17.30;82.00;;;;;;10476525;28;20026;-67
2023/06/02 12:38:48;;;;;;;4.18;1.70;;;17.40;81.90;;;;;;10490524;28;20028;-67
2023/06/02 12:43:48;;;;;;;5.63;1.83;;;17.50;81.80;;;;;;10481494;28;20035;-67
2023/06/02 12:48:49;;;;;;;2.17;1.20;;;17.60;81.70;;;;;;10488146;28;20467;-67
2023/06/02 12:53:50;;;;;;;2.53;1.40;;;17.60;81.50;;;;;;10484552;28;20031;-67
2023/06/02 12:58:50;;;;;;;2.70;1.35;;;17.70;81.50;;;;;;10486797;28;20073;-66
2023/06/02 13:03:52;;;;;;;4.00;1.40;;;17.80;81.50;;;;;;10478398;28;20074;-67
2023/06/02 13:08:53;;;;;;;2.63;1.92;;;17.80;81.40;;;;;;10471305;28;20476;-67
2023/06/02 13:13:54;;;;;;;1.90;1.10;;;17.80;81.50;;;;;;10476074;28;20036;-67
2023/06/02 13:18:55;;;;;;;2.47;1.27;;;18.00;81.40;;;;;;10485038;28;20032;-67
2023/06/02 13:23:57;;;;;;;1.52;1.10;;;18.00;81.20;;;;;;10474134;28;20060;-70
2023/06/02 13:28:58;;;;;;;2.15;1.30;;;18.20;81.10;;;;;;10470262;28;20016;-69
2023/06/02 13:33:58;;;;;;;1.35;0.90;;;18.10;81.10;;;;;;10482874;28;20029;-69
2023/06/02 13:38:59;;;;;;;3.88;1.20;;;18.20;81.30;;;;;;10488093;28;20470;-69
2023/06/02 13:44:00;;;;;;;2.13;1.10;;;18.30;81.40;;;;;;10480286;28;20032;-70
2023/06/02 13:49:00;;;;;;;2.13;1.10;;;18.40;81.10;;;;;;10485230;28;20024;-70
2023/06/02 13:54:01;;;;;;;4.60;1.20;;;18.50;80.90;;;;;;10477838;28;20043;-69
2023/06/02 13:59:01;;;;;;;3.58;1.00;;;18.60;80.70;;;;;;10475667;28;20044;-69
2023/06/02 14:04:08;;;;;;;1.67;0.98;;;18.70;80.30;;;;;;10473603;28;20028;-71
2023/06/02 14:09:09;;;;;;;1.80;0.82;;;18.80;80.50;;;;;;10477164;28;20024;-70
2023/06/02 14:14:10;;;;;;;1.20;0.95;;;19.00;80.50;;;;;;10474592;28;20438;-71
2023/06/02 14:19:11;;;;;;;2.85;1.23;;;19.00;80.30;;;;;;10479979;28;20070;-71
2023/06/02 14:24:11;;;;;;;3.05;1.00;;;19.20;80.80;;;;;;10476356;28;20115;-71
2023/06/02 14:29:12;;;;;;;2.20;0.73;;;19.40;79.80;;;;;;10479053;28;20029;-71
2023/06/02 14:34:13;;;;;;;2.25;0.98;;;19.40;79.90;;;;;;10479818;28;20028;-71
2023/06/02 14:39:13;;;;;;;2.20;1.00;;;19.40;80.10;;;;;;10478649;28;20170;-71
2023/06/02 14:44:14;;;;;;;2.45;1.10;;;19.50;80.00;;;;;;10471164;28;20036;-71
2023/06/02 14:49:15;;;;;;;1.83;0.95;;;19.50;79.80;;;;;;10472625;28;20532;-72
2023/06/02 14:54:15;;;;;;;2.25;1.05;;;19.70;79.60;;;;;;10480687;28;20497;-71
2023/06/02 14:59:19;;;;;;;2.17;1.00;;;19.80;79.50;;;;;;10481871;28;20028;-74
2023/06/02 15:04:20;;;;;;;2.45;0.90;;;19.80;79.20;;;;;;10482501;28;20484;-70
2023/06/02 15:09:21;;;;;;;2.92;1.05;;;20.00;79.10;;;;;;10481274;28;20349;-68
2023/06/02 15:14:21;;;;;;;2.97;1.30;;;20.20;78.70;;;;;;10488327;28;20028;-68
2023/06/02 15:19:22;;;;;;;3.75;1.25;;;20.10;78.10;;;;;;10469889;28;20029;-68
2023/06/02 15:24:24;;;;;;;1.70;0.98;;;20.10;78.50;;;;;;10476344;28;20019;-69
2023/06/02 15:29:27;;;;;;;1.50;0.98;;;20.10;78.60;;;;;;10473780;28;20017;-69
2023/06/02 15:34:27;;;;;;;3.13;1.33;;;20.30;78.50;;;;;;10483410;28;20032;-69
2023/06/02 15:39:28;;;;;;;1.05;0.82;;;20.40;78.60;;;;;;10464868;28;20035;-69
2023/06/02 15:44:29;;;;;;;3.53;1.35;;;20.30;78.70;;;;;;10468067;28;20028;-69
2023/06/02 15:49:30;;;;;;;3.05;0.98;;;20.20;79.00;;;;;;10480503;28;20040;-69
2023/06/02 15:54:30;;;;;;;1.63;1.00;;;20.10;79.20;;;;;;10477759;28;20025;-69
2023/06/02 15:59:31;;;;;;;2.25;0.90;;;20.10;79.60;;;;;;10482104;28;20032;-69
2023/06/02 16:04:32;;;;;;;1.73;0.90;;;20.00;79.80;;;;;;10467639;28;20035;-69
2023/06/02 16:09:32;;;;;;;1.70;1.10;;;20.00;80.00;;;;;;10466416;28;20506;-69
2023/06/02 16:14:33;;;;;;;1.92;1.27;;;20.00;80.20;;;;;;10473354;28;20428;-67
2023/06/02 16:19:33;;;;;;;4.55;1.35;;;20.00;80.30;;;;;;10475630;28;20013;-68
2023/06/02 16:24:34;;;;;;;2.10;1.17;;;19.90;80.30;;;;;;10469422;28;20025;-67
2023/06/02 16:29:35;;;;;;;1.77;1.17;;;20.00;80.60;;;;;;10473034;28;20100;-67
2023/06/02 16:34:35;;;;;;;1.98;1.30;;;20.00;80.90;;;;;;10471379;28;20107;-68
2023/06/02 16:39:36;;;;;;;4.68;1.02;;;19.90;81.10;;;;;;10473879;28;20496;-67
2023/06/02 16:44:36;;;;;;;1.67;1.05;;;19.90;81.10;;;;;;10480307;28;20025;-67
2023/06/02 16:49:38;;;;;;;2.22;1.05;;;19.80;81.30;;;;;;10473341;28;20029;-67
2023/06/02 16:54:39;;;;;;;1.75;1.10;;;19.80;81.50;;;;;;10476271;28;20021;-67
2023/06/02 16:59:39;;;;;;;1.90;1.38;;;19.80;81.50;;;;;;10478981;28;20028;-67
2023/06/02 17:04:40;;;;;;;3.45;1.45;;;19.80;81.70;;;;;;10483700;28;20024;-68
2023/06/02 17:09:40;;;;;;;1.45;1.08;;;19.80;81.80;;;;;;10431965;28;1077545;-67
2023/06/02 17:14:41;;;;;;;2.22;1.20;;;19.80;81.90;;;;;;10486260;28;20107;-67
2023/06/02 17:19:42;;;;;;;2.13;1.13;;;19.80;82.00;;;;;;10479428;28;20037;-67
2023/06/02 17:24:43;;;;;;;1.77;1.10;;;19.80;82.10;;;;;;10482771;28;20031;-68
2023/06/02 17:29:43;;;;;;;1.60;1.20;;;19.80;82.30;;;;;;10484409;28;20021;-67
2023/06/02 17:34:45;;;;;;;2.38;1.23;;;19.60;82.30;;;;;;10467330;28;20693;-67
2023/06/02 17:39:46;;;;;;;2.15;1.10;;;19.70;82.50;;;;;;10486063;28;20166;-67
2023/06/02 17:44:47;;;;;;;2.13;1.20;;;19.60;82.60;;;;;;10478601;28;20034;-67
2023/06/02 17:49:48;;;;;;;2.33;1.17;;;19.60;82.70;;;;;;10484845;28;20078;-67
2023/06/02 17:54:48;;;;;;;2.00;1.10;;;19.60;82.80;;;;;;10481024;28;20021;-67
2023/06/02 17:59:50;;;;;;;2.05;1.27;;;19.60;83.00;;;;;;10491817;28;20519;-68
2023/06/02 18:04:52;;;;;;;3.50;1.20;;;19.50;82.90;;;;;;10475503;28;20024;-67
2023/06/02 18:09:53;;;;;;;1.40;1.10;;;19.50;83.00;;;;;;10484262;28;20020;-67
2023/06/02 18:14:53;;;;;;;3.60;1.20;;;19.40;83.00;;;;;;10482908;28;20407;-70
2023/06/02 18:19:54;;;;;;;1.00;0.90;;;19.40;83.10;;;;;;10471931;28;20035;-67
2023/06/02 18:24:56;;;;;;;1.98;1.23;;;19.40;83.20;;;;;;10480580;28;20367;-67
2023/06/02 18:29:56;;;;;;;2.25;1.45;;;19.40;83.30;;;;;;10475207;28;20112;-67
2023/06/02 18:34:57;;;;;;;2.75;1.50;;;19.30;83.30;;;;;;10483771;28;20073;-67
2023/06/02 18:40:00;;;;;;;3.72;1.40;;;19.30;83.30;;;;;;10478256;28;20040;-68
2023/06/02 18:45:01;;;;;;;2.20;1.10;;;19.30;83.40;;;;;;10482457;28;20037;-67
2023/06/02 18:50:03;;;;;;;3.05;1.45;;;19.20;83.40;;;;;;10489764;28;20029;-67
2023/06/02 18:55:03;;;;;;;1.73;1.23;;;19.20;83.50;;;;;;10493195;28;20036;-67
2023/06/02 19:00:10;;;;;;;2.75;1.42;;;19.20;83.60;;;;;;10479712;28;20033;-67
2023/06/02 19:05:10;;;;;;;2.28;1.20;;;19.10;83.70;;;;;;10478492;28;20056;-67
2023/06/02 19:10:11;;;;;;;1.42;1.13;;;19.10;83.80;;;;;;10479268;28;20125;-67
2023/06/02 19:15:13;;;;;;;2.03;1.20;;;19.10;83.90;;;;;;10481242;28;20037;-67
2023/06/02 19:20:13;;;;;;;2.10;1.20;;;19.10;84.00;;;;;;10477402;28;20122;-67
2023/06/02 19:25:14;;;;;;;2.40;1.25;;;19.00;84.60;;;;;;10481042;28;20123;-67
2023/06/02 19:30:17;;;;;;;2.33;1.38;;;19.00;84.10;;;;;;10477687;28;20024;-67
2023/06/02 19:35:18;;;;;;;2.80;1.73;;;18.90;84.20;;;;;;10485347;28;20024;-67
2023/06/02 19:40:18;;;;;;;2.20;1.20;;;18.90;84.20;;;;;;10485946;28;20035;-68
2023/06/02 19:45:19;;;;;;;1.30;1.10;;;18.90;84.40;;;;;;10479242;28;20024;-68
2023/06/02 19:50:20;;;;;;;2.63;1.20;;;18.80;84.40;;;;;;10484289;28;20037;-67
2023/06/02 19:55:21;;;;;;;2.15;1.42;;;18.80;84.50;;;;;;10490476;28;20332;-67
2023/06/02 20:00:21;;;;;;;2.60;1.40;;;18.80;84.60;;;;;;10472579;28;20055;-67
2023/06/02 20:05:22;;;;;;;3.38;1.38;;;18.70;84.60;;;;;;10476258;28;20205;-67
2023/06/02 20:10:23;;;;;;;1.55;1.10;;;18.70;84.60;;;;;;10471837;28;20025;-67
2023/06/02 20:15:24;;;;;;;1.50;1.20;;;18.70;84.70;;;;;;10477547;28;20267;-67
2023/06/02 20:20:24;;;;;;;3.00;1.50;;;18.60;84.70;;;;;;10478641;28;20465;-67
2023/06/02 20:25:28;;;;;;;2.70;1.70;;;18.60;84.70;;;;;;10490762;28;20029;-67
2023/06/02 20:30:28;;;;;;;1.48;1.20;;;18.60;84.70;;;;;;10476748;28;20107;-67
2023/06/02 20:35:30;;;;;;;1.40;1.15;;;18.50;84.80;;;;;;10465590;28;20028;-67
2023/06/02 20:40:31;;;;;;;2.03;1.40;;;18.50;84.90;;;;;;10478332;28;20560;-67
2023/06/02 20:45:32;;;;;;;1.55;1.20;;;18.50;85.00;;;;;;10485078;28;20020;-67
2023/06/02 20:50:32;;;;;;;2.78;1.30;;;18.40;85.00;;;;;;10492458;28;20024;-67
2023/06/02 20:55:33;;;;;;;2.80;1.20;;;18.40;85.00;;;;;;10481903;28;20070;-68
2023/06/02 21:00:33;;;;;;;2.00;1.10;;;18.30;85.00;;;;;;10478612;28;20047;-66
2023/06/02 21:05:34;;;;;;;1.58;1.30;;;18.40;85.00;;;;;;10489069;28;20082;-65
2023/06/02 21:10:35;;;;;;;5.05;1.38;;;18.30;85.10;;;;;;10486332;28;20024;-70
2023/06/02 21:15:35;;;;;;;1.48;1.30;;;18.20;84.60;;;;;;10482256;28;20028;-67
2023/06/02 21:20:36;;;;;;;3.72;1.20;;;18.10;84.80;;;;;;10483621;28;20089;-66
2023/06/02 21:25:37;;;;;;;3.05;1.30;;;18.00;84.90;;;;;;10485753;28;20531;-66
2023/06/02 21:30:37;;;;;;;2.70;1.17;;;18.00;84.90;;;;;;10476625;28;20021;-66
2023/06/02 21:35:38;;;;;;;3.40;1.50;;;18.00;84.90;;;;;;10480333;28;20071;-66
2023/06/02 21:40:38;;;;;;;3.10;1.15;;;18.00;84.80;;;;;;10474927;28;20027;-66
2023/06/02 21:45:39;;;;;;;2.85;1.73;;;17.90;84.70;;;;;;10468563;28;20032;-66
2023/06/02 21:50:40;;;;;;;1.30;1.20;;;17.90;84.70;;;;;;10471629;28;20024;-66
2023/06/02 21:55:42;;;;;;;2.40;1.60;;;17.90;84.70;;;;;;10479918;28;20044;-66
2023/06/02 22:00:42;;;;;;;3.97;1.67;;;17.90;84.70;;;;;;10475329;28;20066;-66
2023/06/02 22:05:43;;;;;;;4.28;1.88;;;17.90;84.70;;;;;;10477334;28;20028;-66
2023/06/02 22:10:43;;;;;;;5.38;1.90;;;17.80;84.70;;;;;;10478841;28;20043;-66
2023/06/02 22:15:44;;;;;;;3.78;1.98;;;17.80;84.70;;;;;;10473176;28;20015;-66
2023/06/02 22:20:45;;;;;;;4.57;2.10;;;17.80;84.70;;;;;;10473273;28;20507;-66
2023/06/02 22:25:45;;;;;;;3.28;2.10;;;17.70;84.60;;;;;;10483576;28;20111;-66
2023/06/02 22:30:46;;;;;;;4.07;2.17;;;17.70;84.60;;;;;;10469181;28;20036;-66
2023/06/02 22:35:46;;;;;;;5.65;1.77;;;17.60;84.60;;;;;;10477335;28;20476;-65
2023/06/02 22:40:47;;;;;;;2.63;1.90;;;17.60;84.50;;;;;;10477143;28;20028;-66
2023/06/02 22:45:48;;;;;;;3.35;1.70;;;17.60;84.50;;;;;;10470730;28;20484;-65
2023/06/02 22:50:48;;;;;;;5.70;2.00;;;17.60;84.50;;;;;;10484534;28;20016;-66
2023/06/02 22:55:49;;;;;;;2.05;1.75;;;17.50;84.40;;;;;;10483009;28;20025;-65
2023/06/02 23:00:49;;;;;;;2.38;1.65;;;17.60;84.40;;;;;;10477136;28;20098;-66
2023/06/02 23:05:50;;;;;;;2.55;1.55;;;17.50;84.40;;;;;;10467546;28;20049;-66
2023/06/02 23:10:51;;;;;;;2.63;1.50;;;17.40;84.30;;;;;;10466119;28;20028;-66
2023/06/02 23:15:51;;;;;;;1.95;1.75;;;17.40;84.20;;;;;;10474735;28;20020;-66
2023/06/02 23:20:52;;;;;;;5.22;1.40;;;17.40;84.20;;;;;;10476628;28;20024;-66
2023/06/02 23:25:56;;;;;;;3.03;1.80;;;17.30;84.10;;;;;;10472985;28;20023;-65
2023/06/02 23:30:56;;;;;;;3.83;1.70;;;17.30;84.00;;;;;;10471519;28;20013;-66
2023/06/02 23:35:57;;;;;;;2.53;1.60;;;17.30;84.00;;;;;;10477588;28;20051;-66
2023/06/02 23:40:57;;;;;;;2.63;1.52;;;17.30;83.90;;;;;;10478574;28;20122;-65
2023/06/02 23:45:58;;;;;;;1.98;1.35;;;17.20;83.80;;;;;;10471796;28;20021;-66
2023/06/02 23:50:59;;;;;;;4.10;1.48;;;17.20;83.70;;;;;;10482347;28;20400;-65
2023/06/02 23:55:59;;;;;;;3.28;1.52;;;17.20;83.60;;;;;;10480736;28;20012;-66
